Time;durP1;ratioP1;P1;durP2;ratioP2;P2;SDS_P1;SDS_P2;PMS_P1;PMS_P2;Temp;Humidity;BMP_temperature;BMP_pressure;BME280_temperature;BME280_humidity;BME280_pressure;Samples;Min_cycle;Max_cycle;Signal;HPM_P1;HPM_P2
2020/12/31 05:17:32;;;;;;;15.60;14.50;;;0.80;99.90;;;;;;5064453;23;21008;-80
2020/12/31 05:19:58;;;;;;;15.63;14.63;;;0.70;99.90;;;;;;4993315;28;20458;-72
2020/12/31 05:22:24;;;;;;;14.33;13.43;;;0.70;99.90;;;;;;4992954;28;20463;-72
2020/12/31 05:24:52;;;;;;;14.37;13.50;;;0.70;99.90;;;;;;4993541;28;21014;-81
2020/12/31 05:27:20;;;;;;;15.00;13.90;;;0.70;99.90;;;;;;5001069;28;20448;-80
2020/12/31 05:29:54;;;;;;;14.90;13.80;;;0.70;99.90;;;;;;5002433;28;20455;-80
2020/12/31 05:32:21;;;;;;;14.17;13.23;;;0.70;99.90;;;;;;4990705;28;20450;-79
2020/12/31 05:34:48;;;;;;;14.23;13.33;;;0.70;99.90;;;;;;5000457;28;20552;-80
2020/12/31 05:37:15;;;;;;;14.03;13.13;;;0.80;99.90;;;;;;5002255;28;20486;-79
2020/12/31 05:40:03;;;;;;;14.90;14.10;;;0.80;99.90;;;;;;5001894;28;20462;-78
2020/12/31 05:42:30;;;;;;;14.47;13.50;;;0.80;99.90;;;;;;5002205;28;20459;-78
2020/12/31 05:45:01;;;;;;;14.63;13.77;;;0.80;99.90;;;;;;5002225;28;20496;-79
2020/12/31 05:47:27;;;;;;;14.70;13.83;;;0.80;99.90;;;;;;5002536;28;20494;-77
2020/12/31 05:49:54;;;;;;;15.07;14.07;;;0.80;99.90;;;;;;5000347;28;20455;-78
2020/12/31 05:52:34;;;;;;;14.60;13.90;;;0.70;99.90;;;;;;5000885;28;20453;-78
2020/12/31 05:55:03;;;;;;;14.50;13.70;;;0.70;99.90;;;;;;4999858;28;20456;-79
2020/12/31 05:57:43;;;;;;;14.23;13.43;;;0.70;99.90;;;;;;5000239;28;20478;-79
2020/12/31 06:00:12;;;;;;;14.33;13.53;;;0.70;99.90;;;;;;4999745;28;20442;-80
2020/12/31 06:02:43;;;;;;;13.97;13.13;;;0.70;99.90;;;;;;5003227;28;20469;-80
2020/12/31 06:05:13;;;;;;;15.00;13.97;;;0.70;99.90;;;;;;5000805;28;20447;-80
2020/12/31 06:07:42;;;;;;;14.30;13.43;;;0.70;99.90;;;;;;4999674;28;20437;-80
2020/12/31 06:10:12;;;;;;;14.40;13.60;;;0.80;99.90;;;;;;5000614;28;20447;-79
2020/12/31 06:12:50;;;;;;;15.30;14.30;;;0.80;99.90;;;;;;5001830;28;20841;-80
2020/12/31 06:15:18;;;;;;;15.60;14.70;;;0.80;99.90;;;;;;5011759;28;20465;-80
2020/12/31 06:17:46;;;;;;;14.73;13.87;;;0.90;99.90;;;;;;5025280;28;20485;-80
2020/12/31 06:20:14;;;;;;;14.43;13.60;;;0.90;99.90;;;;;;5031775;28;20526;-78
2020/12/31 06:22:59;;;;;;;14.20;13.30;;;0.90;99.90;;;;;;5031542;28;20449;-78
2020/12/31 06:25:34;;;;;;;14.77;13.60;;;0.90;99.90;;;;;;5031418;28;20452;-78
2020/12/31 06:28:05;;;;;;;13.87;13.10;;;0.80;99.90;;;;;;5031357;28;20496;-80
2020/12/31 06:30:33;;;;;;;14.03;13.23;;;0.80;99.90;;;;;;5031392;28;20517;-79
2020/12/31 06:33:04;;;;;;;14.83;13.90;;;0.80;99.90;;;;;;5031502;28;20455;-82
2020/12/31 06:35:33;;;;;;;14.10;13.20;;;0.80;99.90;;;;;;5031443;28;20441;-82
2020/12/31 06:37:59;;;;;;;14.77;13.87;;;0.80;99.90;;;;;;5030889;28;20887;-81
2020/12/31 06:40:27;;;;;;;15.23;14.23;;;0.80;99.90;;;;;;5031211;28;20470;-82
2020/12/31 06:43:09;;;;;;;16.43;15.33;;;0.80;99.90;;;;;;5031242;28;20451;-83
2020/12/31 06:45:42;;;;;;;14.80;13.90;;;0.80;99.90;;;;;;5031717;28;20502;-84
2020/12/31 06:48:37;;;;;;;16.57;15.60;;;0.80;99.90;;;;;;5031588;28;20459;-73
2020/12/31 06:51:06;;;;;;;15.03;13.90;;;0.80;99.90;;;;;;5030938;28;20467;-72
2020/12/31 06:53:34;;;;;;;15.40;14.23;;;0.80;99.90;;;;;;5030904;28;20516;-87
2020/12/31 06:56:01;;;;;;;13.83;13.03;;;0.80;99.90;;;;;;5031787;28;20446;-88
2020/12/31 06:58:27;;;;;;;14.47;13.47;;;0.90;99.90;;;;;;5033584;28;20492;-88
2020/12/31 07:00:55;;;;;;;14.43;13.13;;;1.00;99.90;;;;;;5032071;28;20449;-89
2020/12/31 07:03:47;;;;;;;13.53;12.73;;;1.00;99.90;;;;;;5037381;28;20458;-90
2020/12/31 07:06:41;;;;;;;14.33;13.33;;;1.00;99.90;;;;;;5048809;28;20513;-91
2020/12/31 07:09:33;;;;;;;14.40;13.60;;;1.00;99.90;;;;;;5053614;28;20686;-91
2020/12/31 07:12:04;;;;;;;14.57;13.53;;;1.00;99.90;;;;;;5047166;28;20448;-91
2020/12/31 07:14:32;;;;;;;13.83;13.03;;;1.00;99.90;;;;;;5035393;28;20466;-91
2020/12/31 07:17:03;;;;;;;14.80;13.90;;;1.10;99.90;;;;;;5034614;28;20730;-90
2020/12/31 07:19:34;;;;;;;13.83;12.93;;;1.10;99.90;;;;;;5033629;28;20943;-90
2020/12/31 07:22:01;;;;;;;14.63;13.73;;;1.20;99.90;;;;;;5038184;28;20492;-92
2020/12/31 07:24:28;;;;;;;14.53;13.63;;;1.10;99.90;;;;;;5040354;28;20825;-90
2020/12/31 07:26:56;;;;;;;14.80;13.90;;;1.10;99.90;;;;;;5037921;28;20433;-90
2020/12/31 07:29:29;;;;;;;16.03;14.80;;;1.20;99.90;;;;;;5040062;28;20499;-92
2020/12/31 07:31:55;;;;;;;15.10;14.07;;;1.20;99.90;;;;;;5035632;28;20450;-90
2020/12/31 07:34:22;;;;;;;14.67;13.80;;;1.20;99.90;;;;;;5035759;28;20482;-92
2020/12/31 07:36:59;;;;;;;14.03;13.03;;;1.20;99.90;;;;;;5035698;28;20480;-91
2020/12/31 07:39:27;;;;;;;14.47;13.53;;;1.30;99.90;;;;;;5034634;28;20446;-91
2020/12/31 07:42:17;;;;;;;15.07;14.17;;;1.40;99.90;;;;;;5031759;28;20461;-89
2020/12/31 07:44:51;;;;;;;15.97;14.97;;;1.50;99.90;;;;;;5031665;28;20970;-89
2020/12/31 07:47:19;;;;;;;15.03;14.03;;;1.50;99.90;;;;;;5034212;28;20448;-90
2020/12/31 07:49:46;;;;;;;16.20;15.00;;;1.70;99.90;;;;;;5031718;28;20441;-91
2020/12/31 07:52:12;;;;;;;15.13;14.10;;;1.90;99.90;;;;;;5032726;28;20459;-90
2020/12/31 07:54:39;;;;;;;14.57;13.47;;;2.30;99.90;;;;;;5030487;28;20446;-87
2020/12/31 07:57:09;;;;;;;14.50;13.60;;;2.40;99.90;;;;;;5030303;28;20702;-89
2020/12/31 07:59:43;;;;;;;14.90;13.90;;;2.30;99.90;;;;;;5030032;28;20452;-88
2020/12/31 08:02:10;;;;;;;14.07;13.17;;;2.30;99.90;;;;;;5029982;28;20456;-87
2020/12/31 08:04:36;;;;;;;14.33;13.53;;;2.20;99.90;;;;;;5029882;28;20474;-85
2020/12/31 08:07:03;;;;;;;14.43;13.57;;;2.20;99.90;;;;;;5030176;28;20462;-85
2020/12/31 08:09:30;;;;;;;15.03;14.03;;;2.20;99.90;;;;;;5030195;28;20530;-85
2020/12/31 08:11:57;;;;;;;15.83;14.83;;;2.20;99.90;;;;;;5030086;28;20940;-85
2020/12/31 08:14:24;;;;;;;13.87;13.07;;;2.20;99.90;;;;;;5030083;28;20486;-85
2020/12/31 08:17:01;;;;;;;15.13;14.23;;;2.30;99.90;;;;;;5029744;28;20563;-85
2020/12/31 08:19:28;;;;;;;14.80;13.70;;;2.30;99.90;;;;;;5030146;28;20514;-84
2020/12/31 08:22:00;;;;;;;16.17;15.17;;;2.40;99.90;;;;;;5029812;28;20867;-84
2020/12/31 08:24:28;;;;;;;16.60;15.40;;;2.50;99.90;;;;;;5030325;28;20464;-83
2020/12/31 08:26:57;;;;;;;15.23;14.23;;;2.60;99.90;;;;;;5030170;28;20457;-83
2020/12/31 08:29:27;;;;;;;15.13;14.13;;;2.60;99.90;;;;;;5016565;28;20464;-85
2020/12/31 08:31:54;;;;;;;16.37;15.23;;;2.70;99.90;;;;;;5010330;28;20766;-86
2020/12/31 08:34:27;;;;;;;16.50;15.30;;;2.80;99.90;;;;;;5012485;28;20446;-89
2020/12/31 09:31:18;;;;;;;16.33;15.10;;;3.80;99.90;;;;;;5691692;23;20486;-85
2020/12/31 09:33:47;;;;;;;15.70;14.60;;;3.90;99.90;;;;;;4993491;28;20882;-85
2020/12/31 09:36:20;;;;;;;16.97;15.67;;;3.90;99.90;;;;;;4993483;28;20870;-83
2020/12/31 09:38:46;;;;;;;15.73;14.53;;;3.90;99.90;;;;;;4993631;28;20574;-83
2020/12/31 09:41:13;;;;;;;16.40;15.23;;;4.10;99.90;;;;;;4992865;28;20521;-83
2020/12/31 09:43:39;;;;;;;16.37;15.13;;;4.10;99.90;;;;;;4973862;28;20823;-83
2020/12/31 09:46:05;;;;;;;17.97;16.37;;;4.20;99.90;;;;;;4973780;28;20842;-82
2020/12/31 09:48:32;;;;;;;25.77;20.13;;;4.30;99.90;;;;;;4973861;28;20496;-82
2020/12/31 09:50:59;;;;;;;17.37;16.10;;;4.40;99.90;;;;;;4974877;28;20462;-82
2020/12/31 09:53:25;;;;;;;14.73;13.73;;;4.40;99.90;;;;;;4991667;28;20471;-81
2020/12/31 09:55:51;;;;;;;15.90;14.70;;;4.70;99.90;;;;;;4992846;28;20462;-80
2020/12/31 09:58:17;;;;;;;16.53;15.43;;;4.70;99.90;;;;;;4992828;28;20860;-80
2020/12/31 10:00:46;;;;;;;17.30;15.77;;;4.80;99.90;;;;;;4992961;28;20464;-80
2020/12/31 10:03:25;;;;;;;16.53;15.43;;;5.10;99.90;;;;;;4993066;28;20551;-80
2020/12/31 10:05:54;;;;;;;16.30;15.20;;;5.30;99.90;;;;;;4985509;28;20532;-79
2020/12/31 10:08:21;;;;;;;17.03;15.90;;;5.40;99.90;;;;;;4992600;28;20874;-80
2020/12/31 10:10:47;;;;;;;17.17;15.97;;;5.20;99.90;;;;;;4992632;28;20459;-82
2020/12/31 10:13:14;;;;;;;17.83;16.43;;;4.90;99.90;;;;;;4992521;28;20473;-81
2020/12/31 10:15:40;;;;;;;18.17;16.67;;;4.80;99.90;;;;;;4990619;28;20479;-81
2020/12/31 10:18:06;;;;;;;16.93;15.83;;;4.80;99.90;;;;;;4973056;28;20853;-81
2020/12/31 10:20:33;;;;;;;16.03;15.00;;;4.80;99.90;;;;;;4984500;28;20487;-81
2020/12/31 10:23:00;;;;;;;16.53;15.30;;;4.90;99.90;;;;;;4992512;28;20447;-81
2020/12/31 10:25:26;;;;;;;16.73;15.43;;;4.90;99.90;;;;;;4992409;28;20453;-80
2020/12/31 10:27:52;;;;;;;16.83;15.63;;;4.90;99.90;;;;;;4992266;28;20454;-81
2020/12/31 10:30:18;;;;;;;15.93;14.73;;;5.00;99.90;;;;;;4991900;28;20459;-80
2020/12/31 10:32:47;;;;;;;16.73;15.43;;;5.10;99.90;;;;;;4992244;28;20451;-81
2020/12/31 10:35:13;;;;;;;16.30;15.30;;;5.30;99.90;;;;;;4992481;28;20453;-80
2020/12/31 10:37:40;;;;;;;16.67;15.53;;;5.50;99.90;;;;;;4992011;28;20490;-80
2020/12/31 10:40:07;;;;;;;16.30;15.20;;;5.40;99.90;;;;;;4991953;28;20471;-80
2020/12/31 10:42:34;;;;;;;14.77;13.87;;;5.40;99.90;;;;;;4992157;28;20456;-80
2020/12/31 10:45:00;;;;;;;16.17;15.07;;;5.40;99.90;;;;;;4992200;28;20872;-81
2020/12/31 10:47:26;;;;;;;15.70;14.70;;;5.40;99.90;;;;;;4992138;28;20458;-81
2020/12/31 10:49:52;;;;;;;14.57;13.67;;;5.40;99.90;;;;;;4992080;28;20519;-80
2020/12/31 10:52:18;;;;;;;15.20;14.20;;;5.60;99.90;;;;;;4992028;28;20453;-81
2020/12/31 10:54:44;;;;;;;16.47;15.07;;;5.40;99.90;;;;;;4992019;28;20455;-81
2020/12/31 10:57:11;;;;;;;14.90;13.90;;;5.40;99.90;;;;;;4991531;28;20502;-81
2020/12/31 10:59:38;;;;;;;15.60;14.50;;;5.30;99.90;;;;;;4991422;28;20946;-81
2020/12/31 11:02:04;;;;;;;17.20;15.90;;;5.30;99.90;;;;;;4991379;28;20467;-80
2020/12/31 11:04:30;;;;;;;16.90;15.80;;;5.30;99.90;;;;;;4991884;28;20452;-79
2020/12/31 11:06:56;;;;;;;17.27;16.20;;;5.10;99.90;;;;;;4991861;28;20454;-75
2020/12/31 11:09:22;;;;;;;16.03;15.23;;;5.00;99.90;;;;;;4991516;28;20903;-78
2020/12/31 11:11:48;;;;;;;17.33;16.40;;;4.70;99.90;;;;;;4991535;28;20463;-78
2020/12/31 11:14:15;;;;;;;20.63;19.33;;;4.30;99.90;;;;;;4991643;28;20460;-77
2020/12/31 11:16:47;;;;;;;22.70;21.40;;;4.20;99.90;;;;;;4991698;28;20458;-77
2020/12/31 11:19:14;;;;;;;21.17;19.93;;;4.30;99.90;;;;;;4990764;28;20454;-77
2020/12/31 11:21:40;;;;;;;21.30;19.93;;;4.20;99.90;;;;;;4972258;28;20456;-79
2020/12/31 11:24:06;;;;;;;20.40;19.30;;;4.20;99.90;;;;;;4972136;28;20688;-80
2020/12/31 11:26:32;;;;;;;22.90;21.40;;;4.10;99.90;;;;;;4972181;28;20510;-81
2020/12/31 11:28:58;;;;;;;21.57;20.47;;;4.10;99.90;;;;;;4972341;28;20920;-79
2020/12/31 11:31:26;;;;;;;22.93;21.53;;;4.10;99.90;;;;;;4972158;28;20476;-78
2020/12/31 11:33:52;;;;;;;21.43;20.23;;;4.10;99.90;;;;;;4972213;28;20456;-78
2020/12/31 11:36:20;;;;;;;20.23;19.13;;;4.00;99.90;;;;;;4971969;28;20468;-78
2020/12/31 11:38:47;;;;;;;21.47;20.27;;;4.00;99.90;;;;;;4972203;28;20901;-80
2020/12/31 11:41:13;;;;;;;22.10;20.60;;;4.00;99.90;;;;;;4972480;28;20459;-80
2020/12/31 11:43:39;;;;;;;19.57;18.17;;;4.10;99.90;;;;;;4972104;28;20451;-79
2020/12/31 11:46:06;;;;;;;20.97;19.57;;;4.10;99.90;;;;;;4972035;28;20451;-79
2020/12/31 11:48:33;;;;;;;20.97;19.67;;;4.20;99.90;;;;;;4972071;28;20448;-78
2020/12/31 11:51:00;;;;;;;19.60;18.40;;;4.40;99.90;;;;;;4972114;28;20507;-79
2020/12/31 11:53:28;;;;;;;19.10;17.90;;;4.50;99.90;;;;;;4972044;28;20823;-79
2020/12/31 11:55:55;;;;;;;18.20;16.80;;;4.60;99.90;;;;;;4972074;28;20459;-79
2020/12/31 11:58:21;;;;;;;17.50;16.40;;;4.70;99.90;;;;;;4971923;28;20498;-80
2020/12/31 12:00:49;;;;;;;16.10;14.90;;;4.80;99.90;;;;;;4971991;28;20450;-81
2020/12/31 12:03:15;;;;;;;15.10;14.07;;;5.00;99.90;;;;;;4972133;28;20480;-82
2020/12/31 12:05:42;;;;;;;15.83;14.83;;;5.10;99.90;;;;;;4972137;28;20455;-82
2020/12/31 12:08:08;;;;;;;15.00;14.00;;;5.50;99.90;;;;;;4971933;28;20496;-82
2020/12/31 12:10:35;;;;;;;14.77;13.63;;;5.80;99.90;;;;;;4971820;28;20451;-80
2020/12/31 12:13:01;;;;;;;12.77;12.00;;;5.60;99.90;;;;;;4971784;28;20462;-80
2020/12/31 12:15:27;;;;;;;14.30;13.33;;;5.60;99.90;;;;;;4975129;28;20477;-79
2020/12/31 12:17:53;;;;;;;13.03;12.33;;;5.50;99.90;;;;;;4975403;28;20504;-79
2020/12/31 12:20:20;;;;;;;14.10;13.30;;;5.40;99.90;;;;;;4985271;28;20457;-79
2020/12/31 12:22:46;;;;;;;14.67;13.87;;;5.30;99.90;;;;;;4995086;28;20459;-79
2020/12/31 12:25:13;;;;;;;13.97;13.20;;;5.20;99.90;;;;;;4994862;28;20458;-79
2020/12/31 12:27:41;;;;;;;13.70;13.00;;;5.20;99.90;;;;;;4994653;28;20466;-80
2020/12/31 12:30:10;;;;;;;15.50;14.50;;;5.30;99.90;;;;;;4994689;28;20461;-80
2020/12/31 12:32:36;;;;;;;14.13;13.33;;;5.30;99.90;;;;;;4994557;28;20993;-81
2020/12/31 12:35:03;;;;;;;13.00;12.20;;;5.20;99.90;;;;;;4994542;28;20458;-80
2020/12/31 12:37:29;;;;;;;13.70;12.80;;;5.10;99.90;;;;;;4994512;28;20489;-81
2020/12/31 12:39:56;;;;;;;13.53;12.73;;;5.10;99.90;;;;;;4994624;28;20455;-81
2020/12/31 12:42:23;;;;;;;14.40;13.50;;;5.10;99.90;;;;;;4994448;28;20955;-82
2020/12/31 12:44:49;;;;;;;14.43;13.33;;;5.10;99.90;;;;;;4994409;28;20509;-82
2020/12/31 12:47:15;;;;;;;15.13;14.07;;;5.10;99.90;;;;;;4994539;28;20454;-82
2020/12/31 12:49:43;;;;;;;14.10;13.23;;;5.10;99.90;;;;;;4994646;28;20454;-81
2020/12/31 12:52:09;;;;;;;13.53;12.73;;;5.10;99.90;;;;;;4994529;28;20544;-82
2020/12/31 12:54:35;;;;;;;14.40;13.50;;;5.20;99.90;;;;;;4978327;28;20689;-81
2020/12/31 12:57:03;;;;;;;13.10;12.33;;;5.20;99.90;;;;;;4974641;28;20453;-80
2020/12/31 12:59:29;;;;;;;14.13;13.13;;;5.20;99.90;;;;;;4974556;28;20489;-80
2020/12/31 13:01:55;;;;;;;11.97;11.23;;;5.20;99.90;;;;;;4974761;28;20461;-81
2020/12/31 13:04:21;;;;;;;14.17;12.90;;;5.20;99.90;;;;;;4974562;28;20454;-81
2020/12/31 13:06:48;;;;;;;14.17;13.17;;;5.20;99.90;;;;;;4974511;28;20453;-81
2020/12/31 13:09:14;;;;;;;14.47;13.67;;;5.30;99.90;;;;;;4974444;28;20546;-80
2020/12/31 13:11:41;;;;;;;13.43;12.63;;;5.20;99.90;;;;;;4974169;28;20462;-82
2020/12/31 13:14:09;;;;;;;13.20;12.40;;;5.10;99.90;;;;;;4974188;28;20455;-77
2020/12/31 13:16:35;;;;;;;13.60;12.80;;;5.10;99.90;;;;;;4974117;28;20511;-81
2020/12/31 13:19:02;;;;;;;13.37;12.57;;;5.10;99.90;;;;;;4972164;28;20489;-81
2020/12/31 13:21:28;;;;;;;13.30;12.27;;;5.10;99.90;;;;;;4974104;28;20973;-81
2020/12/31 13:23:54;;;;;;;13.97;13.07;;;5.10;99.90;;;;;;4974065;28;20864;-82
2020/12/31 13:26:20;;;;;;;14.97;14.07;;;5.10;99.90;;;;;;4973376;28;20459;-81
2020/12/31 13:28:47;;;;;;;14.03;13.13;;;5.10;99.90;;;;;;4973892;28;20505;-82
2020/12/31 13:31:16;;;;;;;13.60;12.80;;;5.20;99.90;;;;;;4974354;28;21009;-80
2020/12/31 13:33:43;;;;;;;14.47;13.37;;;5.30;99.90;;;;;;4975211;28;20859;-82
2020/12/31 13:36:19;;;;;;;14.20;13.30;;;5.30;99.90;;;;;;4974736;28;20457;-81
2020/12/31 13:38:45;;;;;;;14.83;13.83;;;5.30;99.90;;;;;;4972234;28;21787;-82
2020/12/31 13:41:14;;;;;;;14.20;13.40;;;5.30;99.90;;;;;;4963869;28;20448;-82
2020/12/31 13:43:41;;;;;;;14.20;13.30;;;5.50;99.90;;;;;;4965756;28;20459;-82
2020/12/31 13:46:07;;;;;;;13.50;12.70;;;5.40;99.90;;;;;;4954637;29;20464;-81
2020/12/31 13:48:34;;;;;;;13.70;12.90;;;5.40;99.90;;;;;;4967477;28;20501;-81
2020/12/31 13:51:01;;;;;;;14.73;13.73;;;5.40;99.90;;;;;;4973739;28;20529;-81
2020/12/31 13:53:27;;;;;;;12.43;11.70;;;5.40;99.90;;;;;;4990812;28;20460;-81
2020/12/31 13:55:53;;;;;;;13.37;12.47;;;5.30;99.90;;;;;;4989210;28;20452;-82
2020/12/31 13:58:21;;;;;;;12.60;11.80;;;5.30;99.90;;;;;;4972049;28;21023;-82
2020/12/31 14:00:50;;;;;;;14.70;13.70;;;5.40;99.90;;;;;;4972753;28;20519;-79
2020/12/31 14:03:16;;;;;;;15.07;14.00;;;5.40;99.90;;;;;;4971766;28;20830;-83
2020/12/31 14:05:43;;;;;;;14.40;13.60;;;5.40;99.90;;;;;;4973041;28;20459;-82
2020/12/31 14:08:10;;;;;;;14.07;13.27;;;5.50;99.90;;;;;;4973020;28;20457;-83
2020/12/31 14:10:36;;;;;;;14.43;13.60;;;5.60;99.90;;;;;;4972966;28;20459;-82
2020/12/31 14:13:02;;;;;;;13.53;12.53;;;5.60;99.90;;;;;;4972929;28;20521;-82
2020/12/31 14:15:29;;;;;;;12.17;11.40;;;5.60;99.90;;;;;;4971621;28;20477;-83
2020/12/31 14:17:56;;;;;;;13.40;12.70;;;5.60;99.90;;;;;;4970233;28;20575;-81
2020/12/31 14:20:22;;;;;;;12.47;11.60;;;5.50;99.90;;;;;;4972338;28;20451;-83
2020/12/31 14:22:49;;;;;;;12.63;12.03;;;5.60;99.90;;;;;;4962422;28;20464;-81
2020/12/31 14:25:15;;;;;;;13.17;12.27;;;5.60;99.90;;;;;;4954112;29;20814;-81
2020/12/31 14:27:41;;;;;;;13.30;12.50;;;5.70;99.90;;;;;;4953686;29;20518;-82
2020/12/31 14:30:11;;;;;;;11.90;11.30;;;5.70;99.90;;;;;;4953532;29;20796;-82
2020/12/31 14:32:37;;;;;;;13.50;12.70;;;5.60;99.90;;;;;;4953488;29;20498;-81
2020/12/31 14:35:03;;;;;;;11.83;11.30;;;5.70;99.90;;;;;;4953460;29;21019;-81
2020/12/31 14:37:30;;;;;;;12.20;11.60;;;5.70;99.90;;;;;;4952807;28;20494;-81
2020/12/31 14:39:57;;;;;;;12.80;12.10;;;5.70;99.90;;;;;;4953717;29;20464;-81
2020/12/31 14:42:23;;;;;;;12.40;11.80;;;5.70;99.90;;;;;;4953340;29;20820;-82
2020/12/31 14:44:49;;;;;;;12.10;11.50;;;5.70;99.90;;;;;;4953072;29;20515;-82
2020/12/31 14:47:15;;;;;;;13.77;13.07;;;5.70;99.90;;;;;;4953606;29;20457;-82
2020/12/31 14:49:41;;;;;;;11.67;11.17;;;5.60;99.90;;;;;;4953435;29;20452;-80
2020/12/31 14:52:08;;;;;;;11.90;11.30;;;5.60;99.90;;;;;;4953204;29;20948;-81
2020/12/31 14:54:34;;;;;;;12.87;12.03;;;5.60;99.90;;;;;;4953325;29;20814;-80
2020/12/31 14:57:01;;;;;;;12.53;11.93;;;5.70;99.90;;;;;;4953133;29;20457;-81
2020/12/31 14:59:27;;;;;;;12.57;11.90;;;5.80;99.90;;;;;;4953285;29;20464;-81
2020/12/31 15:01:54;;;;;;;12.03;11.43;;;5.80;99.90;;;;;;4955518;28;20467;-81
2020/12/31 15:04:20;;;;;;;13.00;12.30;;;5.70;99.90;;;;;;4953003;29;21193;-80
2020/12/31 15:06:47;;;;;;;13.60;12.90;;;5.90;99.90;;;;;;4952994;29;20453;-82
2020/12/31 15:09:13;;;;;;;13.07;12.37;;;5.90;99.90;;;;;;4953341;29;20814;-80
2020/12/31 15:11:39;;;;;;;12.57;11.83;;;5.90;99.90;;;;;;4952865;29;20486;-81
2020/12/31 15:14:07;;;;;;;12.70;12.00;;;5.80;99.90;;;;;;4952683;29;20967;-81
2020/12/31 15:16:33;;;;;;;11.70;11.20;;;5.90;99.90;;;;;;4952834;29;20464;-81
2020/12/31 15:18:59;;;;;;;11.30;10.70;;;5.80;99.90;;;;;;4953096;29;20495;-81
2020/12/31 15:21:25;;;;;;;13.27;12.37;;;5.70;99.90;;;;;;4952841;29;20450;-81
2020/12/31 15:23:52;;;;;;;12.00;11.40;;;5.70;99.90;;;;;;4952642;29;20957;-81
2020/12/31 15:26:18;;;;;;;12.70;12.00;;;5.60;99.90;;;;;;4952579;29;20515;-81
2020/12/31 15:28:44;;;;;;;12.00;11.30;;;5.50;99.90;;;;;;4952831;29;20463;-81
2020/12/31 15:31:11;;;;;;;13.30;12.50;;;5.50;99.90;;;;;;4952587;28;20580;-80
2020/12/31 15:34:21;;;;;;;13.30;12.40;;;5.50;99.90;;;;;;4952141;29;20455;-80
2020/12/31 15:36:47;;;;;;;12.93;12.13;;;5.50;99.90;;;;;;4952588;29;20457;-80
2020/12/31 15:39:13;;;;;;;11.63;11.03;;;5.60;99.90;;;;;;4952728;29;20907;-80
2020/12/31 15:41:41;;;;;;;11.80;11.20;;;5.50;99.90;;;;;;4952605;29;20454;-81
2020/12/31 15:44:07;;;;;;;13.23;12.47;;;5.60;99.90;;;;;;4952558;29;20552;-81
2020/12/31 15:46:34;;;;;;;13.00;12.30;;;5.60;99.90;;;;;;4952333;29;20459;-81
2020/12/31 15:49:00;;;;;;;13.20;12.40;;;5.60;99.90;;;;;;4955689;28;20462;-81
2020/12/31 15:51:26;;;;;;;15.73;14.30;;;5.80;99.90;;;;;;4956860;29;20457;-81
2020/12/31 15:53:54;;;;;;;14.13;13.13;;;5.90;99.90;;;;;;4956642;29;20984;-81
2020/12/31 15:56:21;;;;;;;14.53;13.53;;;5.90;99.90;;;;;;4956421;29;20459;-80
2020/12/31 15:58:47;;;;;;;14.70;13.70;;;5.90;99.90;;;;;;4956279;29;20503;-81
2020/12/31 16:01:13;;;;;;;14.00;13.20;;;5.80;99.90;;;;;;4956539;29;20965;-81
2020/12/31 16:03:40;;;;;;;14.77;13.67;;;5.90;99.90;;;;;;4956316;29;20459;-82
2020/12/31 16:06:06;;;;;;;15.27;14.20;;;5.80;99.90;;;;;;4956400;29;21186;-81
2020/12/31 16:08:32;;;;;;;14.73;13.73;;;5.60;99.90;;;;;;4956168;28;20462;-80
2020/12/31 16:10:58;;;;;;;14.10;13.20;;;5.50;99.90;;;;;;4958697;29;20461;-80
2020/12/31 16:13:25;;;;;;;14.70;13.60;;;5.40;99.90;;;;;;4956016;29;20455;-81
2020/12/31 16:15:51;;;;;;;13.70;12.80;;;5.40;99.90;;;;;;4955999;29;20487;-82
2020/12/31 16:18:17;;;;;;;13.40;12.60;;;5.30;99.90;;;;;;4956045;29;20491;-82
2020/12/31 16:20:44;;;;;;;15.07;14.17;;;5.30;99.90;;;;;;4956471;29;20456;-80
2020/12/31 16:23:10;;;;;;;16.00;14.77;;;5.30;99.90;;;;;;4957275;29;20459;-81
2020/12/31 16:25:36;;;;;;;14.67;13.73;;;5.20;99.90;;;;;;4955862;29;20511;-81
2020/12/31 16:28:03;;;;;;;14.43;13.40;;;5.10;99.90;;;;;;4955453;28;20454;-81
2020/12/31 16:30:29;;;;;;;13.90;12.90;;;5.20;99.90;;;;;;4973189;28;20458;-81
2020/12/31 16:32:55;;;;;;;14.77;13.43;;;5.10;99.90;;;;;;4974970;28;20886;-81
2020/12/31 16:35:22;;;;;;;13.73;12.80;;;5.20;99.90;;;;;;4973541;28;20465;-80
2020/12/31 16:37:49;;;;;;;13.10;12.20;;;5.20;99.90;;;;;;4965385;28;20554;-81
2020/12/31 16:40:16;;;;;;;14.77;13.40;;;5.30;99.90;;;;;;4972013;28;20447;-82
2020/12/31 16:42:43;;;;;;;13.93;13.07;;;5.20;99.90;;;;;;4972253;28;20453;-80
2020/12/31 16:45:11;;;;;;;15.37;14.40;;;5.30;99.90;;;;;;4973629;28;20448;-78
2020/12/31 16:47:38;;;;;;;12.80;12.10;;;5.20;99.90;;;;;;4973984;28;20455;-79
2020/12/31 16:50:05;;;;;;;14.20;13.40;;;5.10;99.90;;;;;;4974526;28;20460;-80
2020/12/31 16:52:32;;;;;;;13.07;12.40;;;5.10;99.90;;;;;;4974386;28;20461;-80
2020/12/31 16:54:59;;;;;;;13.60;12.80;;;5.10;99.90;;;;;;4974602;28;20454;-80
2020/12/31 16:57:26;;;;;;;15.00;14.10;;;5.10;99.90;;;;;;4974411;28;20459;-79
2020/12/31 16:59:52;;;;;;;13.77;13.00;;;5.10;99.90;;;;;;4973655;28;20492;-79
2020/12/31 17:02:19;;;;;;;13.33;12.53;;;5.00;99.90;;;;;;4974577;28;20452;-78
2020/12/31 17:04:45;;;;;;;14.50;13.80;;;4.90;99.90;;;;;;4966502;28;20457;-79
2020/12/31 17:07:11;;;;;;;13.87;13.27;;;4.90;99.90;;;;;;4974303;28;20452;-78
2020/12/31 17:09:37;;;;;;;14.40;13.77;;;4.80;99.90;;;;;;4972901;28;21041;-76
2020/12/31 17:12:05;;;;;;;16.63;15.93;;;4.80;99.90;;;;;;4951854;29;20455;-78
2020/12/31 17:14:31;;;;;;;21.37;20.37;;;4.80;99.90;;;;;;4954095;29;20894;-78
2020/12/31 17:16:57;;;;;;;24.13;23.13;;;4.70;99.90;;;;;;4954730;29;20456;-79
2020/12/31 17:19:23;;;;;;;24.07;22.67;;;4.60;99.90;;;;;;4954140;29;20496;-80
2020/12/31 17:21:51;;;;;;;22.90;21.70;;;4.50;99.90;;;;;;4954315;29;20479;-77
2020/12/31 17:24:18;;;;;;;22.37;21.13;;;4.50;99.90;;;;;;4954101;29;20826;-80
2020/12/31 17:26:45;;;;;;;20.93;20.07;;;4.50;99.90;;;;;;4954071;28;20497;-81
2020/12/31 17:29:14;;;;;;;21.20;20.17;;;4.50;99.90;;;;;;4968998;28;20467;-83
2020/12/31 17:31:41;;;;;;;20.50;19.57;;;4.50;99.90;;;;;;4972122;28;20896;-78
2020/12/31 17:34:08;;;;;;;20.63;19.63;;;4.50;99.90;;;;;;4973629;28;20515;-80
2020/12/31 17:36:35;;;;;;;20.20;19.13;;;4.50;99.90;;;;;;4970504;28;20467;-80
2020/12/31 17:39:02;;;;;;;24.40;22.90;;;4.50;99.90;;;;;;4954225;29;20500;-81
2020/12/31 17:41:28;;;;;;;19.63;18.70;;;4.50;99.90;;;;;;4953780;29;20453;-81
2020/12/31 17:43:54;;;;;;;20.50;19.50;;;4.50;99.90;;;;;;4953956;28;20469;-84
2020/12/31 17:46:23;;;;;;;21.90;20.87;;;4.50;99.90;;;;;;4953822;29;20824;-82
2020/12/31 17:48:51;;;;;;;21.57;20.20;;;4.50;99.90;;;;;;4954150;29;20813;-81
2020/12/31 17:51:19;;;;;;;20.53;19.43;;;4.60;99.90;;;;;;4953908;29;20497;-81
2020/12/31 17:53:46;;;;;;;21.47;20.23;;;4.60;99.90;;;;;;4954019;29;20551;-80
2020/12/31 17:56:13;;;;;;;20.83;19.60;;;4.60;99.90;;;;;;4953556;28;20457;-79
2020/12/31 17:58:40;;;;;;;21.40;20.30;;;4.60;99.90;;;;;;4953445;29;20497;-80
2020/12/31 18:01:07;;;;;;;21.40;20.30;;;4.60;99.90;;;;;;4953399;29;20463;-81
2020/12/31 18:03:34;;;;;;;25.00;23.40;;;4.70;99.90;;;;;;4953679;29;20456;-81
2020/12/31 18:06:01;;;;;;;27.83;26.33;;;4.60;99.90;;;;;;4953688;29;20451;-79
2020/12/31 18:08:28;;;;;;;25.30;24.10;;;4.60;99.90;;;;;;4954677;29;20535;-79
2020/12/31 18:10:55;;;;;;;26.17;24.57;;;4.60;99.90;;;;;;4953965;28;20471;-78
2020/12/31 18:13:22;;;;;;;25.80;24.40;;;4.60;99.90;;;;;;4953404;29;20485;-81
2020/12/31 18:15:48;;;;;;;24.93;23.63;;;4.50;99.90;;;;;;4953673;29;20480;-79
2020/12/31 18:18:14;;;;;;;23.87;22.67;;;4.50;99.90;;;;;;4953539;29;20490;-79
2020/12/31 18:20:42;;;;;;;23.10;21.90;;;4.40;99.90;;;;;;4953642;29;20521;-78
2020/12/31 18:23:10;;;;;;;22.57;21.57;;;4.40;99.90;;;;;;4953175;29;20483;-79
2020/12/31 18:25:36;;;;;;;23.90;22.40;;;4.40;99.90;;;;;;4953464;28;21010;-80
2020/12/31 18:28:02;;;;;;;22.10;20.97;;;4.40;99.90;;;;;;4953328;29;20452;-80
2020/12/31 18:30:28;;;;;;;23.23;22.03;;;4.40;99.90;;;;;;4953175;29;20997;-80
2020/12/31 18:32:55;;;;;;;20.53;19.33;;;4.40;99.90;;;;;;4953198;29;20469;-79
2020/12/31 18:35:21;;;;;;;22.23;20.93;;;4.30;99.90;;;;;;4953123;29;20462;-80
2020/12/31 18:37:48;;;;;;;22.07;20.77;;;4.30;99.90;;;;;;4953164;29;20548;-81
2020/12/31 18:40:18;;;;;;;23.30;21.90;;;4.30;99.90;;;;;;4953219;29;20908;-81
2020/12/31 18:42:46;;;;;;;23.20;21.97;;;4.30;99.90;;;;;;4953273;29;20452;-81
2020/12/31 18:45:16;;;;;;;21.83;20.30;;;4.30;99.90;;;;;;4952677;29;20468;-80
2020/12/31 18:47:44;;;;;;;21.53;20.37;;;4.30;99.90;;;;;;4953512;29;20461;-81
2020/12/31 18:50:11;;;;;;;23.37;22.17;;;4.30;99.90;;;;;;4952843;29;20488;-80